sensor_id;sensor_type;location;lat;lon;timestamp;P1;durP1;ratioP1;P2;durP2;ratioP2
48076;SDS011;33854;57.708;12.008;2023-02-20T00:01:58;3.30;;;0.70;;
48076;SDS011;33854;57.708;12.008;2023-02-20T00:04:23;5.53;;;1.63;;
48076;SDS011;33854;57.708;12.008;2023-02-20T00:06:49;6.70;;;1.00;;
48076;SDS011;33854;57.708;12.008;2023-02-20T00:09:15;3.60;;;1.10;;
48076;SDS011;33854;57.708;12.008;2023-02-20T00:11:40;4.20;;;0.70;;
48076;SDS011;33854;57.708;12.008;2023-02-20T00:14:06;5.87;;;1.40;;
48076;SDS011;33854;57.708;12.008;2023-02-20T00:16:31;15.53;;;1.50;;
48076;SDS011;33854;57.708;12.008;2023-02-20T00:18:57;6.97;;;0.93;;
48076;SDS011;33854;57.708;12.008;2023-02-20T00:21:23;7.83;;;0.83;;
48076;SDS011;33854;57.708;12.008;2023-02-20T00:23:48;6.87;;;1.40;;
48076;SDS011;33854;57.708;12.008;2023-02-20T00:26:14;8.80;;;1.40;;
48076;SDS011;33854;57.708;12.008;2023-02-20T00:28:40;6.43;;;1.20;;
48076;SDS011;33854;57.708;12.008;2023-02-20T00:31:07;9.20;;;1.52;;
48076;SDS011;33854;57.708;12.008;2023-02-20T00:33:35;5.25;;;1.17;;
48076;SDS011;33854;57.708;12.008;2023-02-20T00:36:02;2.05;;;0.60;;
48076;SDS011;33854;57.708;12.008;2023-02-20T00:38:28;7.18;;;1.00;;
48076;SDS011;33854;57.708;12.008;2023-02-20T00:40:53;7.77;;;1.20;;
48076;SDS011;33854;57.708;12.008;2023-02-20T00:43:18;3.50;;;0.73;;
48076;SDS011;33854;57.708;12.008;2023-02-20T00:45:44;8.20;;;1.00;;
48076;SDS011;33854;57.708;12.008;2023-02-20T00:48:09;0.20;;;0.20;;
48076;SDS011;33854;57.708;12.008;2023-02-20T00:50:35;5.17;;;2.30;;
48076;SDS011;33854;57.708;12.008;2023-02-20T00:53:00;2.77;;;0.60;;
48076;SDS011;33854;57.708;12.008;2023-02-20T00:55:26;1.37;;;0.40;;
48076;SDS011;33854;57.708;12.008;2023-02-20T00:57:51;2.10;;;0.57;;
48076;SDS011;33854;57.708;12.008;2023-02-20T01:00:18;2.37;;;0.60;;
48076;SDS011;33854;57.708;12.008;2023-02-20T01:02:47;3.63;;;0.60;;
48076;SDS011;33854;57.708;12.008;2023-02-20T01:05:14;1.27;;;0.60;;
48076;SDS011;33854;57.708;12.008;2023-02-20T01:07:39;6.57;;;1.00;;
48076;SDS011;33854;57.708;12.008;2023-02-20T01:10:05;2.87;;;0.40;;
48076;SDS011;33854;57.708;12.008;2023-02-20T01:12:31;0.00;;;0.00;;
48076;SDS011;33854;57.708;12.008;2023-02-20T01:14:56;0.23;;;0.23;;
48076;SDS011;33854;57.708;12.008;2023-02-20T01:17:22;0.00;;;0.00;;
48076;SDS011;33854;57.708;12.008;2023-02-20T01:19:47;0.00;;;0.00;;
48076;SDS011;33854;57.708;12.008;2023-02-20T01:22:12;0.00;;;0.00;;
48076;SDS011;33854;57.708;12.008;2023-02-20T01:24:38;0.00;;;0.00;;
48076;SDS011;33854;57.708;12.008;2023-02-20T01:27:03;0.00;;;0.00;;
48076;SDS011;33854;57.708;12.008;2023-02-20T01:29:29;0.00;;;0.00;;
48076;SDS011;33854;57.708;12.008;2023-02-20T01:31:55;0.00;;;0.00;;
48076;SDS011;33854;57.708;12.008;2023-02-20T01:34:20;0.00;;;0.00;;
48076;SDS011;33854;57.708;12.008;2023-02-20T01:36:49;0.00;;;0.00;;
48076;SDS011;33854;57.708;12.008;2023-02-20T01:39:21;0.00;;;0.00;;
48076;SDS011;33854;57.708;12.008;2023-02-20T01:41:49;0.00;;;0.00;;
48076;SDS011;33854;57.708;12.008;2023-02-20T01:44:19;0.00;;;0.00;;
48076;SDS011;33854;57.708;12.008;2023-02-20T01:46:47;0.00;;;0.00;;
48076;SDS011;33854;57.708;12.008;2023-02-20T01:49:35;1.88;;;1.65;;
48076;SDS011;33854;57.708;12.008;2023-02-20T01:52:14;0.00;;;0.00;;
48076;SDS011;33854;57.708;12.008;2023-02-20T01:54:40;0.00;;;0.00;;
48076;SDS011;33854;57.708;12.008;2023-02-20T01:57:12;0.00;;;0.00;;
48076;SDS011;33854;57.708;12.008;2023-02-20T01:59:41;0.00;;;0.00;;
48076;SDS011;33854;57.708;12.008;2023-02-20T02:02:08;0.00;;;0.00;;
48076;SDS011;33854;57.708;12.008;2023-02-20T02:04:34;0.08;;;0.08;;
48076;SDS011;33854;57.708;12.008;2023-02-20T02:07:03;0.00;;;0.00;;
48076;SDS011;33854;57.708;12.008;2023-02-20T02:12:00;0.00;;;0.00;;
48076;SDS011;33854;57.708;12.008;2023-02-20T02:14:25;0.33;;;0.20;;
48076;SDS011;33854;57.708;12.008;2023-02-20T02:16:55;0.00;;;0.00;;
48076;SDS011;33854;57.708;12.008;2023-02-20T02:34:33;7.47;;;1.27;;
48076;SDS011;33854;57.708;12.008;2023-02-20T02:37:23;7.05;;;0.80;;
48076;SDS011;33854;57.708;12.008;2023-02-20T02:42:39;4.07;;;0.93;;
48076;SDS011;33854;57.708;12.008;2023-02-20T02:48:13;2.15;;;0.55;;
48076;SDS011;33854;57.708;12.008;2023-02-20T02:50:45;10.98;;;1.55;;
48076;SDS011;33854;57.708;12.008;2023-02-20T02:53:12;1.95;;;0.90;;
48076;SDS011;33854;57.708;12.008;2023-02-20T02:58:04;0.00;;;0.00;;
48076;SDS011;33854;57.708;12.008;2023-02-20T03:00:34;0.00;;;0.00;;
48076;SDS011;33854;57.708;12.008;2023-02-20T03:03:12;0.00;;;0.00;;
48076;SDS011;33854;57.708;12.008;2023-02-20T03:05:43;0.00;;;0.00;;
48076;SDS011;33854;57.708;12.008;2023-02-20T03:11:00;0.00;;;0.00;;
48076;SDS011;33854;57.708;12.008;2023-02-20T03:13:33;0.00;;;0.00;;
48076;SDS011;33854;57.708;12.008;2023-02-20T03:16:22;0.00;;;0.00;;
48076;SDS011;33854;57.708;12.008;2023-02-20T03:18:54;6.25;;;1.08;;
48076;SDS011;33854;57.708;12.008;2023-02-20T03:21:24;2.75;;;0.43;;
48076;SDS011;33854;57.708;12.008;2023-02-20T03:23:54;4.28;;;0.57;;
48076;SDS011;33854;57.708;12.008;2023-02-20T03:26:29;0.00;;;0.00;;
48076;SDS011;33854;57.708;12.008;2023-02-20T03:28:58;0.00;;;0.00;;
48076;SDS011;33854;57.708;12.008;2023-02-20T03:31:36;0.00;;;0.00;;
48076;SDS011;33854;57.708;12.008;2023-02-20T03:34:36;0.05;;;0.03;;
48076;SDS011;33854;57.708;12.008;2023-02-20T03:37:22;5.30;;;0.73;;
48076;SDS011;33854;57.708;12.008;2023-02-20T03:40:10;0.32;;;0.32;;
48076;SDS011;33854;57.708;12.008;2023-02-20T03:42:59;6.53;;;1.48;;
48076;SDS011;33854;57.708;12.008;2023-02-20T03:45:48;0.00;;;0.00;;
48076;SDS011;33854;57.708;12.008;2023-02-20T03:48:32;0.00;;;0.00;;
48076;SDS011;33854;57.708;12.008;2023-02-20T03:51:04;0.38;;;0.25;;
48076;SDS011;33854;57.708;12.008;2023-02-20T03:53:49;0.00;;;0.00;;
48076;SDS011;33854;57.708;12.008;2023-02-20T03:56:18;0.00;;;0.00;;
48076;SDS011;33854;57.708;12.008;2023-02-20T03:58:51;0.00;;;0.00;;
48076;SDS011;33854;57.708;12.008;2023-02-20T04:01:20;0.00;;;0.00;;
48076;SDS011;33854;57.708;12.008;2023-02-20T04:03:49;0.00;;;0.00;;
48076;SDS011;33854;57.708;12.008;2023-02-20T04:06:18;0.00;;;0.00;;
48076;SDS011;33854;57.708;12.008;2023-02-20T04:08:51;0.20;;;0.20;;
48076;SDS011;33854;57.708;12.008;2023-02-20T04:11:23;0.00;;;0.00;;
48076;SDS011;33854;57.708;12.008;2023-02-20T04:13:53;0.30;;;0.30;;
48076;SDS011;33854;57.708;12.008;2023-02-20T04:16:20;0.00;;;0.00;;
48076;SDS011;33854;57.708;12.008;2023-02-20T04:21:18;0.00;;;0.00;;
48076;SDS011;33854;57.708;12.008;2023-02-20T04:23:49;0.00;;;0.00;;
48076;SDS011;33854;57.708;12.008;2023-02-20T04:26:28;0.00;;;0.00;;
48076;SDS011;33854;57.708;12.008;2023-02-20T04:28:53;12.80;;;2.53;;
48076;SDS011;33854;57.708;12.008;2023-02-20T04:31:19;0.00;;;0.00;;
48076;SDS011;33854;57.708;12.008;2023-02-20T04:33:45;0.00;;;0.00;;
48076;SDS011;33854;57.708;12.008;2023-02-20T04:36:11;0.10;;;0.10;;
48076;SDS011;33854;57.708;12.008;2023-02-20T04:38:36;0.00;;;0.00;;
48076;SDS011;33854;57.708;12.008;2023-02-20T04:41:02;0.27;;;0.27;;
48076;SDS011;33854;57.708;12.008;2023-02-20T04:43:28;16.67;;;2.88;;
48076;SDS011;33854;57.708;12.008;2023-02-20T04:45:54;0.00;;;0.00;;
48076;SDS011;33854;57.708;12.008;2023-02-20T04:48:19;0.00;;;0.00;;
48076;SDS011;33854;57.708;12.008;2023-02-20T04:50:45;0.00;;;0.00;;
48076;SDS011;33854;57.708;12.008;2023-02-20T04:53:10;0.63;;;0.63;;
48076;SDS011;33854;57.708;12.008;2023-02-20T04:55:36;0.00;;;0.00;;
48076;SDS011;33854;57.708;12.008;2023-02-20T04:58:01;0.20;;;0.20;;
48076;SDS011;33854;57.708;12.008;2023-02-20T05:00:27;0.00;;;0.00;;
48076;SDS011;33854;57.708;12.008;2023-02-20T05:02:53;16.93;;;2.00;;
48076;SDS011;33854;57.708;12.008;2023-02-20T05:05:19;0.00;;;0.00;;
48076;SDS011;33854;57.708;12.008;2023-02-20T05:07:59;0.00;;;0.00;;
48076;SDS011;33854;57.708;12.008;2023-02-20T05:10:30;0.00;;;0.00;;
48076;SDS011;33854;57.708;12.008;2023-02-20T05:12:57;0.10;;;0.10;;
48076;SDS011;33854;57.708;12.008;2023-02-20T05:15:23;0.00;;;0.00;;
48076;SDS011;33854;57.708;12.008;2023-02-20T05:17:50;0.90;;;0.38;;
48076;SDS011;33854;57.708;12.008;2023-02-20T05:20:16;0.00;;;0.00;;
48076;SDS011;33854;57.708;12.008;2023-02-20T05:22:46;0.00;;;0.00;;
48076;SDS011;33854;57.708;12.008;2023-02-20T05:25:13;41.85;;;5.88;;
48076;SDS011;33854;57.708;12.008;2023-02-20T05:27:39;0.00;;;0.00;;
48076;SDS011;33854;57.708;12.008;2023-02-20T05:30:05;0.03;;;0.03;;
48076;SDS011;33854;57.708;12.008;2023-02-20T05:32:31;0.32;;;0.30;;
48076;SDS011;33854;57.708;12.008;2023-02-20T05:34:56;0.00;;;0.00;;
48076;SDS011;33854;57.708;12.008;2023-02-20T05:37:23;0.00;;;0.00;;
48076;SDS011;33854;57.708;12.008;2023-02-20T05:39:50;0.10;;;0.10;;
48076;SDS011;33854;57.708;12.008;2023-02-20T05:42:16;0.00;;;0.00;;
48076;SDS011;33854;57.708;12.008;2023-02-20T05:44:42;0.00;;;0.00;;
48076;SDS011;33854;57.708;12.008;2023-02-20T05:47:08;0.73;;;0.73;;
48076;SDS011;33854;57.708;12.008;2023-02-20T05:49:34;0.00;;;0.00;;
48076;SDS011;33854;57.708;12.008;2023-02-20T05:54:26;0.10;;;0.10;;
48076;SDS011;33854;57.708;12.008;2023-02-20T05:59:19;0.73;;;0.73;;
48076;SDS011;33854;57.708;12.008;2023-02-20T06:01:46;0.10;;;0.10;;
48076;SDS011;33854;57.708;12.008;2023-02-20T06:04:12;0.00;;;0.00;;
48076;SDS011;33854;57.708;12.008;2023-02-20T06:06:38;0.17;;;0.17;;
48076;SDS011;33854;57.708;12.008;2023-02-20T06:09:06;0.00;;;0.00;;
48076;SDS011;33854;57.708;12.008;2023-02-20T06:11:34;0.17;;;0.17;;
48076;SDS011;33854;57.708;12.008;2023-02-20T06:14:01;0.10;;;0.10;;
48076;SDS011;33854;57.708;12.008;2023-02-20T06:16:27;2.80;;;1.77;;
48076;SDS011;33854;57.708;12.008;2023-02-20T06:18:54;0.00;;;0.00;;
48076;SDS011;33854;57.708;12.008;2023-02-20T06:21:20;30.67;;;1.48;;
48076;SDS011;33854;57.708;12.008;2023-02-20T06:23:47;0.00;;;0.00;;
48076;SDS011;33854;57.708;12.008;2023-02-20T06:26:14;0.00;;;0.00;;
48076;SDS011;33854;57.708;12.008;2023-02-20T06:28:40;1.50;;;0.98;;
48076;SDS011;33854;57.708;12.008;2023-02-20T06:31:06;14.67;;;1.20;;
48076;SDS011;33854;57.708;12.008;2023-02-20T06:33:32;0.23;;;0.23;;
48076;SDS011;33854;57.708;12.008;2023-02-20T06:35:58;0.52;;;0.52;;
48076;SDS011;33854;57.708;12.008;2023-02-20T06:38:23;0.83;;;0.83;;
48076;SDS011;33854;57.708;12.008;2023-02-20T06:40:49;79.10;;;9.03;;
48076;SDS011;33854;57.708;12.008;2023-02-20T06:43:15;66.60;;;8.40;;
48076;SDS011;33854;57.708;12.008;2023-02-20T06:45:41;71.00;;;9.50;;
48076;SDS011;33854;57.708;12.008;2023-02-20T06:48:06;47.40;;;7.30;;
48076;SDS011;33854;57.708;12.008;2023-02-20T06:50:32;82.57;;;10.07;;
48076;SDS011;33854;57.708;12.008;2023-02-20T06:52:57;78.33;;;10.13;;
48076;SDS011;33854;57.708;12.008;2023-02-20T06:55:23;77.40;;;9.93;;
48076;SDS011;33854;57.708;12.008;2023-02-20T06:57:48;42.43;;;7.43;;
48076;SDS011;33854;57.708;12.008;2023-02-20T07:00:15;67.35;;;8.68;;
48076;SDS011;33854;57.708;12.008;2023-02-20T07:02:42;68.35;;;9.65;;
48076;SDS011;33854;57.708;12.008;2023-02-20T07:05:07;79.57;;;10.03;;
48076;SDS011;33854;57.708;12.008;2023-02-20T07:07:34;87.55;;;10.88;;
48076;SDS011;33854;57.708;12.008;2023-02-20T07:10:00;63.90;;;9.37;;
48076;SDS011;33854;57.708;12.008;2023-02-20T07:12:29;79.40;;;10.17;;
48076;SDS011;33854;57.708;12.008;2023-02-20T07:14:55;78.43;;;9.55;;
48076;SDS011;33854;57.708;12.008;2023-02-20T07:17:21;78.93;;;10.63;;
48076;SDS011;33854;57.708;12.008;2023-02-20T07:19:46;62.47;;;8.10;;
48076;SDS011;33854;57.708;12.008;2023-02-20T07:22:12;67.97;;;9.53;;
48076;SDS011;33854;57.708;12.008;2023-02-20T07:24:37;58.53;;;10.13;;
48076;SDS011;33854;57.708;12.008;2023-02-20T07:27:05;83.63;;;11.10;;
48076;SDS011;33854;57.708;12.008;2023-02-20T07:29:31;45.15;;;8.98;;
48076;SDS011;33854;57.708;12.008;2023-02-20T07:31:57;85.93;;;9.93;;
48076;SDS011;33854;57.708;12.008;2023-02-20T07:34:22;99.73;;;11.97;;
48076;SDS011;33854;57.708;12.008;2023-02-20T07:36:48;74.83;;;9.00;;
48076;SDS011;33854;57.708;12.008;2023-02-20T07:39:13;60.97;;;8.57;;
48076;SDS011;33854;57.708;12.008;2023-02-20T07:41:39;75.00;;;10.27;;
48076;SDS011;33854;57.708;12.008;2023-02-20T07:44:05;83.10;;;11.77;;
48076;SDS011;33854;57.708;12.008;2023-02-20T07:46:31;79.22;;;10.02;;
48076;SDS011;33854;57.708;12.008;2023-02-20T07:49:01;82.65;;;10.23;;
48076;SDS011;33854;57.708;12.008;2023-02-20T07:51:28;77.15;;;9.20;;
48076;SDS011;33854;57.708;12.008;2023-02-20T07:53:53;88.70;;;12.87;;
48076;SDS011;33854;57.708;12.008;2023-02-20T07:56:19;87.27;;;10.67;;
48076;SDS011;33854;57.708;12.008;2023-02-20T07:58:46;63.28;;;8.45;;
48076;SDS011;33854;57.708;12.008;2023-02-20T08:01:12;70.88;;;11.73;;
48076;SDS011;33854;57.708;12.008;2023-02-20T08:03:37;79.40;;;10.13;;
48076;SDS011;33854;57.708;12.008;2023-02-20T08:06:03;77.73;;;10.17;;
48076;SDS011;33854;57.708;12.008;2023-02-20T08:08:29;74.33;;;10.57;;
48076;SDS011;33854;57.708;12.008;2023-02-20T08:10:54;73.70;;;9.43;;
48076;SDS011;33854;57.708;12.008;2023-02-20T08:13:19;74.13;;;9.87;;
48076;SDS011;33854;57.708;12.008;2023-02-20T08:15:45;71.93;;;10.53;;
48076;SDS011;33854;57.708;12.008;2023-02-20T08:18:12;68.25;;;9.93;;
48076;SDS011;33854;57.708;12.008;2023-02-20T08:20:38;85.45;;;10.48;;
48076;SDS011;33854;57.708;12.008;2023-02-20T08:23:03;59.87;;;8.97;;
48076;SDS011;33854;57.708;12.008;2023-02-20T08:25:30;73.18;;;8.40;;
48076;SDS011;33854;57.708;12.008;2023-02-20T08:27:57;68.93;;;9.05;;
48076;SDS011;33854;57.708;12.008;2023-02-20T08:30:23;57.40;;;8.02;;
48076;SDS011;33854;57.708;12.008;2023-02-20T08:32:51;62.85;;;9.05;;
48076;SDS011;33854;57.708;12.008;2023-02-20T08:35:17;77.43;;;10.85;;
48076;SDS011;33854;57.708;12.008;2023-02-20T08:37:43;64.67;;;9.03;;
48076;SDS011;33854;57.708;12.008;2023-02-20T08:40:09;67.85;;;8.82;;
48076;SDS011;33854;57.708;12.008;2023-02-20T08:42:36;72.78;;;9.48;;
48076;SDS011;33854;57.708;12.008;2023-02-20T08:45:05;58.23;;;7.97;;
48076;SDS011;33854;57.708;12.008;2023-02-20T08:47:32;60.85;;;8.13;;
48076;SDS011;33854;57.708;12.008;2023-02-20T08:49:58;72.97;;;8.30;;
48076;SDS011;33854;57.708;12.008;2023-02-20T08:52:23;53.87;;;7.50;;
48076;SDS011;33854;57.708;12.008;2023-02-20T08:54:49;52.70;;;8.13;;
48076;SDS011;33854;57.708;12.008;2023-02-20T08:57:15;57.00;;;8.53;;
48076;SDS011;33854;57.708;12.008;2023-02-20T08:59:41;43.97;;;7.10;;
48076;SDS011;33854;57.708;12.008;2023-02-20T09:02:08;54.77;;;8.60;;
48076;SDS011;33854;57.708;12.008;2023-02-20T09:04:41;57.40;;;8.35;;
48076;SDS011;33854;57.708;12.008;2023-02-20T09:07:09;58.53;;;9.70;;
48076;SDS011;33854;57.708;12.008;2023-02-20T09:09:34;62.67;;;9.13;;
48076;SDS011;33854;57.708;12.008;2023-02-20T09:12:00;59.27;;;8.63;;
48076;SDS011;33854;57.708;12.008;2023-02-20T09:14:25;52.63;;;7.70;;
48076;SDS011;33854;57.708;12.008;2023-02-20T09:16:51;64.23;;;7.87;;
48076;SDS011;33854;57.708;12.008;2023-02-20T09:19:17;47.13;;;6.53;;
48076;SDS011;33854;57.708;12.008;2023-02-20T09:21:46;62.07;;;8.03;;
48076;SDS011;33854;57.708;12.008;2023-02-20T09:24:12;49.03;;;7.55;;
48076;SDS011;33854;57.708;12.008;2023-02-20T09:26:38;56.37;;;8.13;;
48076;SDS011;33854;57.708;12.008;2023-02-20T09:29:03;46.50;;;7.33;;
48076;SDS011;33854;57.708;12.008;2023-02-20T09:31:29;50.00;;;8.43;;
48076;SDS011;33854;57.708;12.008;2023-02-20T09:33:54;46.77;;;7.17;;
48076;SDS011;33854;57.708;12.008;2023-02-20T09:36:20;47.33;;;7.77;;
48076;SDS011;33854;57.708;12.008;2023-02-20T09:38:45;37.27;;;5.80;;
48076;SDS011;33854;57.708;12.008;2023-02-20T09:41:21;44.07;;;6.60;;
48076;SDS011;33854;57.708;12.008;2023-02-20T09:46:26;44.10;;;6.50;;
48076;SDS011;33854;57.708;12.008;2023-02-20T09:51:39;34.97;;;5.75;;
48076;SDS011;33854;57.708;12.008;2023-02-20T09:54:23;42.47;;;7.25;;
48076;SDS011;33854;57.708;12.008;2023-02-20T09:56:51;33.17;;;5.20;;
48076;SDS011;33854;57.708;12.008;2023-02-20T10:02:15;34.80;;;6.03;;
48076;SDS011;33854;57.708;12.008;2023-02-20T10:04:56;35.13;;;5.47;;
48076;SDS011;33854;57.708;12.008;2023-02-20T10:07:29;32.10;;;5.63;;
48076;SDS011;33854;57.708;12.008;2023-02-20T10:10:16;42.03;;;6.35;;
48076;SDS011;33854;57.708;12.008;2023-02-20T10:27:34;50.58;;;6.35;;
48076;SDS011;33854;57.708;12.008;2023-02-20T10:30:20;39.15;;;6.25;;
48076;SDS011;33854;57.708;12.008;2023-02-20T10:38:44;48.53;;;6.90;;
48076;SDS011;33854;57.708;12.008;2023-02-20T10:41:17;40.33;;;6.22;;
48076;SDS011;33854;57.708;12.008;2023-02-20T10:51:59;30.83;;;5.90;;
48076;SDS011;33854;57.708;12.008;2023-02-20T10:54:39;39.53;;;6.03;;
48076;SDS011;33854;57.708;12.008;2023-02-20T10:57:22;43.72;;;7.40;;
48076;SDS011;33854;57.708;12.008;2023-02-20T10:59:58;20.45;;;4.53;;
48076;SDS011;33854;57.708;12.008;2023-02-20T11:02:32;46.83;;;6.78;;
48076;SDS011;33854;57.708;12.008;2023-02-20T11:05:06;48.25;;;6.25;;
48076;SDS011;33854;57.708;12.008;2023-02-20T11:07:35;37.50;;;6.25;;
48076;SDS011;33854;57.708;12.008;2023-02-20T11:10:00;45.03;;;7.43;;
48076;SDS011;33854;57.708;12.008;2023-02-20T11:12:28;35.93;;;6.23;;
48076;SDS011;33854;57.708;12.008;2023-02-20T11:14:59;35.13;;;6.43;;
48076;SDS011;33854;57.708;12.008;2023-02-20T11:17:31;32.45;;;5.70;;
48076;SDS011;33854;57.708;12.008;2023-02-20T11:19:59;39.45;;;6.00;;
48076;SDS011;33854;57.708;12.008;2023-02-20T11:25:28;25.58;;;5.47;;
48076;SDS011;33854;57.708;12.008;2023-02-20T11:27:57;42.05;;;7.93;;
48076;SDS011;33854;57.708;12.008;2023-02-20T11:30:32;52.30;;;7.55;;
48076;SDS011;33854;57.708;12.008;2023-02-20T11:35:40;35.97;;;6.38;;
48076;SDS011;33854;57.708;12.008;2023-02-20T11:40:44;43.67;;;8.20;;
48076;SDS011;33854;57.708;12.008;2023-02-20T11:45:37;32.87;;;7.03;;
48076;SDS011;33854;57.708;12.008;2023-02-20T11:51:04;46.83;;;6.72;;
48076;SDS011;33854;57.708;12.008;2023-02-20T11:53:24;49.67;;;7.55;;
48076;SDS011;33854;57.708;12.008;2023-02-20T11:56:13;51.10;;;7.85;;
48076;SDS011;33854;57.708;12.008;2023-02-20T11:58:42;53.95;;;7.28;;
48076;SDS011;33854;57.708;12.008;2023-02-20T12:03:58;51.08;;;7.47;;
48076;SDS011;33854;57.708;12.008;2023-02-20T12:08:56;43.55;;;7.00;;
48076;SDS011;33854;57.708;12.008;2023-02-20T12:11:24;46.90;;;8.00;;
48076;SDS011;33854;57.708;12.008;2023-02-20T12:13:52;53.17;;;8.07;;
48076;SDS011;33854;57.708;12.008;2023-02-20T12:16:25;43.50;;;8.35;;
48076;SDS011;33854;57.708;12.008;2023-02-20T12:30:02;51.72;;;7.90;;
48076;SDS011;33854;57.708;12.008;2023-02-20T12:34:53;52.88;;;8.68;;
48076;SDS011;33854;57.708;12.008;2023-02-20T12:40:18;54.05;;;7.97;;
48076;SDS011;33854;57.708;12.008;2023-02-20T12:55:58;36.37;;;6.07;;
48076;SDS011;33854;57.708;12.008;2023-02-20T13:01:52;35.30;;;6.75;;
48076;SDS011;33854;57.708;12.008;2023-02-20T13:04:27;28.20;;;5.75;;
48076;SDS011;33854;57.708;12.008;2023-02-20T13:07:02;40.45;;;7.03;;
48076;SDS011;33854;57.708;12.008;2023-02-20T13:12:30;58.67;;;7.90;;
48076;SDS011;33854;57.708;12.008;2023-02-20T13:15:02;59.50;;;8.67;;
48076;SDS011;33854;57.708;12.008;2023-02-20T13:22:59;49.47;;;7.30;;
48076;SDS011;33854;57.708;12.008;2023-02-20T13:27:59;62.60;;;9.70;;
48076;SDS011;33854;57.708;12.008;2023-02-20T13:30:26;54.45;;;8.55;;
48076;SDS011;33854;57.708;12.008;2023-02-20T13:38:09;56.55;;;8.43;;
48076;SDS011;33854;57.708;12.008;2023-02-20T13:40:37;56.00;;;9.15;;
48076;SDS011;33854;57.708;12.008;2023-02-20T13:45:45;53.05;;;8.50;;
48076;SDS011;33854;57.708;12.008;2023-02-20T13:50:43;51.65;;;8.18;;
48076;SDS011;33854;57.708;12.008;2023-02-20T13:53:08;51.17;;;7.00;;
48076;SDS011;33854;57.708;12.008;2023-02-20T13:55:34;57.77;;;10.07;;
48076;SDS011;33854;57.708;12.008;2023-02-20T13:58:02;48.40;;;9.02;;
48076;SDS011;33854;57.708;12.008;2023-02-20T14:08:40;42.13;;;7.72;;
48076;SDS011;33854;57.708;12.008;2023-02-20T14:11:29;47.55;;;9.07;;
48076;SDS011;33854;57.708;12.008;2023-02-20T14:14:05;48.80;;;7.40;;
48076;SDS011;33854;57.708;12.008;2023-02-20T14:16:35;45.85;;;7.00;;
48076;SDS011;33854;57.708;12.008;2023-02-20T14:19:47;43.53;;;7.20;;
48076;SDS011;33854;57.708;12.008;2023-02-20T14:21:54;40.85;;;6.55;;
48076;SDS011;33854;57.708;12.008;2023-02-20T14:24:21;49.72;;;7.43;;
48076;SDS011;33854;57.708;12.008;2023-02-20T14:26:52;48.72;;;7.55;;
48076;SDS011;33854;57.708;12.008;2023-02-20T14:31:55;33.30;;;6.22;;
48076;SDS011;33854;57.708;12.008;2023-02-20T14:34:28;40.00;;;5.85;;
48076;SDS011;33854;57.708;12.008;2023-02-20T14:37:20;32.03;;;4.82;;
48076;SDS011;33854;57.708;12.008;2023-02-20T14:42:35;37.38;;;5.28;;
48076;SDS011;33854;57.708;12.008;2023-02-20T14:45:04;30.77;;;4.88;;
48076;SDS011;33854;57.708;12.008;2023-02-20T14:47:32;39.83;;;5.88;;
48076;SDS011;33854;57.708;12.008;2023-02-20T14:53:09;38.78;;;6.15;;
48076;SDS011;33854;57.708;12.008;2023-02-20T14:55:41;33.17;;;5.45;;
48076;SDS011;33854;57.708;12.008;2023-02-20T14:58:10;45.45;;;6.15;;
48076;SDS011;33854;57.708;12.008;2023-02-20T15:00:39;45.85;;;5.68;;
48076;SDS011;33854;57.708;12.008;2023-02-20T15:03:08;25.90;;;5.22;;
48076;SDS011;33854;57.708;12.008;2023-02-20T15:05:54;38.38;;;5.40;;
48076;SDS011;33854;57.708;12.008;2023-02-20T15:08:26;41.92;;;5.40;;
48076;SDS011;33854;57.708;12.008;2023-02-20T15:10:56;32.13;;;5.07;;
48076;SDS011;33854;57.708;12.008;2023-02-20T15:13:29;36.70;;;5.30;;
48076;SDS011;33854;57.708;12.008;2023-02-20T15:16:13;37.90;;;6.93;;
48076;SDS011;33854;57.708;12.008;2023-02-20T15:18:43;48.95;;;6.88;;
48076;SDS011;33854;57.708;12.008;2023-02-20T15:21:10;34.70;;;6.07;;
48076;SDS011;33854;57.708;12.008;2023-02-20T15:23:41;45.33;;;7.18;;
48076;SDS011;33854;57.708;12.008;2023-02-20T15:29:10;51.70;;;7.43;;
48076;SDS011;33854;57.708;12.008;2023-02-20T15:31:35;45.75;;;6.45;;
48076;SDS011;33854;57.708;12.008;2023-02-20T15:34:00;34.47;;;6.00;;
48076;SDS011;33854;57.708;12.008;2023-02-20T15:36:30;50.42;;;8.32;;
48076;SDS011;33854;57.708;12.008;2023-02-20T15:38:55;47.20;;;8.90;;
48076;SDS011;33854;57.708;12.008;2023-02-20T15:41:21;50.23;;;7.40;;
48076;SDS011;33854;57.708;12.008;2023-02-20T15:43:47;54.15;;;7.97;;
48076;SDS011;33854;57.708;12.008;2023-02-20T15:46:13;41.90;;;6.83;;
48076;SDS011;33854;57.708;12.008;2023-02-20T15:48:40;53.08;;;9.10;;
48076;SDS011;33854;57.708;12.008;2023-02-20T15:51:06;45.43;;;7.23;;
48076;SDS011;33854;57.708;12.008;2023-02-20T15:53:33;45.53;;;6.60;;
48076;SDS011;33854;57.708;12.008;2023-02-20T15:55:59;59.45;;;8.57;;
48076;SDS011;33854;57.708;12.008;2023-02-20T15:58:35;42.75;;;6.88;;
48076;SDS011;33854;57.708;12.008;2023-02-20T16:01:03;45.70;;;7.10;;
48076;SDS011;33854;57.708;12.008;2023-02-20T16:03:29;57.92;;;8.23;;
48076;SDS011;33854;57.708;12.008;2023-02-20T16:08:22;45.22;;;6.32;;
48076;SDS011;33854;57.708;12.008;2023-02-20T16:10:50;48.17;;;7.20;;
48076;SDS011;33854;57.708;12.008;2023-02-20T16:15:53;48.73;;;8.60;;
48076;SDS011;33854;57.708;12.008;2023-02-20T16:18:19;49.87;;;7.10;;
48076;SDS011;33854;57.708;12.008;2023-02-20T16:20:44;48.67;;;6.63;;
48076;SDS011;33854;57.708;12.008;2023-02-20T16:23:10;40.42;;;7.05;;
48076;SDS011;33854;57.708;12.008;2023-02-20T16:25:36;50.50;;;7.27;;
48076;SDS011;33854;57.708;12.008;2023-02-20T16:28:02;53.67;;;6.50;;
48076;SDS011;33854;57.708;12.008;2023-02-20T16:32:56;47.25;;;7.05;;
48076;SDS011;33854;57.708;12.008;2023-02-20T16:35:21;51.17;;;8.33;;
48076;SDS011;33854;57.708;12.008;2023-02-20T16:37:47;54.93;;;7.70;;
48076;SDS011;33854;57.708;12.008;2023-02-20T16:40:13;55.03;;;7.93;;
48076;SDS011;33854;57.708;12.008;2023-02-20T16:42:39;52.42;;;6.75;;
48076;SDS011;33854;57.708;12.008;2023-02-20T16:45:12;50.80;;;7.82;;
48076;SDS011;33854;57.708;12.008;2023-02-20T16:47:40;42.63;;;6.50;;
48076;SDS011;33854;57.708;12.008;2023-02-20T16:50:09;54.78;;;7.20;;
48076;SDS011;33854;57.708;12.008;2023-02-20T16:52:37;53.92;;;7.90;;
48076;SDS011;33854;57.708;12.008;2023-02-20T16:57:56;51.00;;;8.98;;
48076;SDS011;33854;57.708;12.008;2023-02-20T17:00:30;56.13;;;7.72;;
48076;SDS011;33854;57.708;12.008;2023-02-20T17:02:57;58.45;;;8.48;;
48076;SDS011;33854;57.708;12.008;2023-02-20T17:05:24;61.20;;;8.87;;
48076;SDS011;33854;57.708;12.008;2023-02-20T17:07:52;58.83;;;8.88;;
48076;SDS011;33854;57.708;12.008;2023-02-20T17:10:18;56.50;;;7.72;;
48076;SDS011;33854;57.708;12.008;2023-02-20T17:12:44;52.90;;;9.50;;
48076;SDS011;33854;57.708;12.008;2023-02-20T17:15:10;43.97;;;6.50;;
48076;SDS011;33854;57.708;12.008;2023-02-20T17:17:38;59.78;;;9.57;;
48076;SDS011;33854;57.708;12.008;2023-02-20T17:20:03;58.70;;;7.50;;
48076;SDS011;33854;57.708;12.008;2023-02-20T17:22:29;52.08;;;8.20;;
48076;SDS011;33854;57.708;12.008;2023-02-20T17:24:55;58.27;;;9.63;;
48076;SDS011;33854;57.708;12.008;2023-02-20T17:27:21;53.72;;;8.10;;
48076;SDS011;33854;57.708;12.008;2023-02-20T17:29:47;58.97;;;8.52;;
48076;SDS011;33854;57.708;12.008;2023-02-20T17:32:13;41.33;;;6.07;;